sensor_id;sensor_type;location;lat;lon;timestamp;P1;durP1;ratioP1;P2;durP2;ratioP2
29236;SDS011;16266;50.866;4.398;2023-07-02T00:01:04;382.10;;;363.73;;
29236;SDS011;16266;50.866;4.398;2023-07-02T00:03:29;368.45;;;350.40;;
29236;SDS011;16266;50.866;4.398;2023-07-02T00:05:55;411.77;;;390.88;;
29236;SDS011;16266;50.866;4.398;2023-07-02T00:08:21;440.40;;;418.35;;
29236;SDS011;16266;50.866;4.398;2023-07-02T00:10:47;428.25;;;407.67;;
29236;SDS011;16266;50.866;4.398;2023-07-02T00:13:13;450.20;;;428.85;;
29236;SDS011;16266;50.866;4.398;2023-07-02T00:15:40;456.17;;;434.50;;
29236;SDS011;16266;50.866;4.398;2023-07-02T00:18:05;452.88;;;430.73;;
29236;SDS011;16266;50.866;4.398;2023-07-02T00:20:32;449.38;;;428.13;;
29236;SDS011;16266;50.866;4.398;2023-07-02T00:23:03;448.67;;;427.23;;
29236;SDS011;16266;50.866;4.398;2023-07-02T00:25:29;433.77;;;413.05;;
29236;SDS011;16266;50.866;4.398;2023-07-02T00:27:55;460.50;;;438.63;;
29236;SDS011;16266;50.866;4.398;2023-07-02T00:30:20;466.63;;;444.83;;
29236;SDS011;16266;50.866;4.398;2023-07-02T00:32:46;473.08;;;451.27;;
29236;SDS011;16266;50.866;4.398;2023-07-02T00:35:12;486.13;;;463.40;;
29236;SDS011;16266;50.866;4.398;2023-07-02T00:37:37;482.92;;;460.60;;
29236;SDS011;16266;50.866;4.398;2023-07-02T00:40:03;462.35;;;440.95;;
29236;SDS011;16266;50.866;4.398;2023-07-02T00:42:29;460.27;;;439.00;;
29236;SDS011;16266;50.866;4.398;2023-07-02T00:44:55;470.13;;;448.38;;
29236;SDS011;16266;50.866;4.398;2023-07-02T00:47:27;482.27;;;460.08;;
29236;SDS011;16266;50.866;4.398;2023-07-02T00:49:54;462.70;;;440.95;;
29236;SDS011;16266;50.866;4.398;2023-07-02T00:52:19;469.23;;;447.50;;
29236;SDS011;16266;50.866;4.398;2023-07-02T00:54:46;458.83;;;437.20;;
29236;SDS011;16266;50.866;4.398;2023-07-02T00:57:12;456.05;;;434.45;;
29236;SDS011;16266;50.866;4.398;2023-07-02T00:59:37;477.35;;;454.95;;
29236;SDS011;16266;50.866;4.398;2023-07-02T01:02:03;483.27;;;461.10;;
29236;SDS011;16266;50.866;4.398;2023-07-02T01:04:30;458.38;;;437.20;;
29236;SDS011;16266;50.866;4.398;2023-07-02T01:06:56;459.08;;;437.90;;
29236;SDS011;16266;50.866;4.398;2023-07-02T01:09:25;475.90;;;453.80;;
29236;SDS011;16266;50.866;4.398;2023-07-02T01:11:56;468.73;;;445.95;;
29236;SDS011;16266;50.866;4.398;2023-07-02T01:17:01;462.85;;;441.23;;
29236;SDS011;16266;50.866;4.398;2023-07-02T01:22:08;468.58;;;446.55;;
29236;SDS011;16266;50.866;4.398;2023-07-02T01:24:41;454.15;;;432.38;;
29236;SDS011;16266;50.866;4.398;2023-07-02T01:27:07;432.33;;;412.35;;
29236;SDS011;16266;50.866;4.398;2023-07-02T01:29:34;455.13;;;433.60;;
29236;SDS011;16266;50.866;4.398;2023-07-02T01:32:03;435.15;;;415.00;;
29236;SDS011;16266;50.866;4.398;2023-07-02T01:34:28;451.80;;;430.55;;
29236;SDS011;16266;50.866;4.398;2023-07-02T01:36:54;466.33;;;444.45;;
29236;SDS011;16266;50.866;4.398;2023-07-02T01:39:20;490.92;;;467.52;;
29236;SDS011;16266;50.866;4.398;2023-07-02T01:41:49;501.45;;;477.80;;
29236;SDS011;16266;50.866;4.398;2023-07-02T01:44:20;443.33;;;422.63;;
29236;SDS011;16266;50.866;4.398;2023-07-02T01:46:47;425.33;;;405.90;;
29236;SDS011;16266;50.866;4.398;2023-07-02T01:49:14;460.58;;;439.60;;
29236;SDS011;16266;50.866;4.398;2023-07-02T01:51:40;488.88;;;466.00;;
29236;SDS011;16266;50.866;4.398;2023-07-02T01:54:09;511.20;;;486.98;;
29236;SDS011;16266;50.866;4.398;2023-07-02T01:56:34;503.25;;;478.25;;
29236;SDS011;16266;50.866;4.398;2023-07-02T01:59:00;504.98;;;480.00;;
29236;SDS011;16266;50.866;4.398;2023-07-02T02:01:26;507.92;;;482.17;;
29236;SDS011;16266;50.866;4.398;2023-07-02T02:03:52;474.10;;;449.85;;
29236;SDS011;16266;50.866;4.398;2023-07-02T02:06:18;472.42;;;447.38;;
29236;SDS011;16266;50.866;4.398;2023-07-02T02:08:44;458.15;;;433.48;;
29236;SDS011;16266;50.866;4.398;2023-07-02T02:11:09;415.95;;;393.92;;
29236;SDS011;16266;50.866;4.398;2023-07-02T02:13:35;409.08;;;387.90;;
29236;SDS011;16266;50.866;4.398;2023-07-02T02:16:00;427.02;;;404.80;;
29236;SDS011;16266;50.866;4.398;2023-07-02T02:18:26;447.92;;;424.50;;
29236;SDS011;16266;50.866;4.398;2023-07-02T02:20:52;487.10;;;462.67;;
29236;SDS011;16266;50.866;4.398;2023-07-02T02:23:17;511.75;;;487.33;;
29236;SDS011;16266;50.866;4.398;2023-07-02T02:25:43;499.45;;;476.27;;
29236;SDS011;16266;50.866;4.398;2023-07-02T02:28:09;482.10;;;458.92;;
29236;SDS011;16266;50.866;4.398;2023-07-02T02:30:34;469.80;;;447.73;;
29236;SDS011;16266;50.866;4.398;2023-07-02T02:33:00;472.50;;;450.40;;
29236;SDS011;16266;50.866;4.398;2023-07-02T02:35:25;519.97;;;494.27;;
29236;SDS011;16266;50.866;4.398;2023-07-02T02:37:51;519.67;;;495.13;;
29236;SDS011;16266;50.866;4.398;2023-07-02T02:40:17;508.17;;;484.15;;
29236;SDS011;16266;50.866;4.398;2023-07-02T02:42:42;537.85;;;512.30;;
29236;SDS011;16266;50.866;4.398;2023-07-02T02:45:08;525.38;;;499.75;;
29236;SDS011;16266;50.866;4.398;2023-07-02T02:47:34;532.95;;;507.63;;
29236;SDS011;16266;50.866;4.398;2023-07-02T02:49:59;520.97;;;496.17;;
29236;SDS011;16266;50.866;4.398;2023-07-02T02:52:25;498.27;;;474.35;;
29236;SDS011;16266;50.866;4.398;2023-07-02T02:54:51;524.88;;;499.27;;
29236;SDS011;16266;50.866;4.398;2023-07-02T02:57:19;499.20;;;475.23;;
29236;SDS011;16266;50.866;4.398;2023-07-02T02:59:45;440.52;;;419.30;;
29236;SDS011;16266;50.866;4.398;2023-07-02T03:02:11;380.55;;;362.70;;
29236;SDS011;16266;50.866;4.398;2023-07-02T03:04:36;391.98;;;374.10;;
29236;SDS011;16266;50.866;4.398;2023-07-02T03:07:05;451.52;;;429.95;;
29236;SDS011;16266;50.866;4.398;2023-07-02T03:09:32;468.92;;;446.10;;
29236;SDS011;16266;50.866;4.398;2023-07-02T03:11:58;518.70;;;491.98;;
29236;SDS011;16266;50.866;4.398;2023-07-02T03:14:24;559.20;;;528.95;;
29236;SDS011;16266;50.866;4.398;2023-07-02T03:16:49;586.85;;;552.33;;
29236;SDS011;16266;50.866;4.398;2023-07-02T03:19:15;641.45;;;601.58;;
29236;SDS011;16266;50.866;4.398;2023-07-02T03:21:44;672.97;;;631.10;;
29236;SDS011;16266;50.866;4.398;2023-07-02T03:24:10;715.90;;;669.55;;
29236;SDS011;16266;50.866;4.398;2023-07-02T03:26:39;738.17;;;690.22;;
29236;SDS011;16266;50.866;4.398;2023-07-02T03:29:05;758.70;;;709.63;;
29236;SDS011;16266;50.866;4.398;2023-07-02T03:31:31;754.70;;;706.30;;
29236;SDS011;16266;50.866;4.398;2023-07-02T03:33:57;741.45;;;694.60;;
29236;SDS011;16266;50.866;4.398;2023-07-02T03:36:23;728.35;;;681.65;;
29236;SDS011;16266;50.866;4.398;2023-07-02T03:38:48;733.83;;;686.85;;
29236;SDS011;16266;50.866;4.398;2023-07-02T03:41:14;774.70;;;724.83;;
29236;SDS011;16266;50.866;4.398;2023-07-02T03:43:40;752.00;;;704.40;;
29236;SDS011;16266;50.866;4.398;2023-07-02T03:46:05;794.53;;;743.08;;
29236;SDS011;16266;50.866;4.398;2023-07-02T03:48:32;779.50;;;728.08;;
29236;SDS011;16266;50.866;4.398;2023-07-02T03:50:58;794.03;;;743.00;;
29236;SDS011;16266;50.866;4.398;2023-07-02T03:53:23;778.10;;;729.20;;
29236;SDS011;16266;50.866;4.398;2023-07-02T03:55:49;770.30;;;722.17;;
29236;SDS011;16266;50.866;4.398;2023-07-02T03:58:15;761.05;;;715.30;;
29236;SDS011;16266;50.866;4.398;2023-07-02T04:00:40;704.38;;;664.63;;
29236;SDS011;16266;50.866;4.398;2023-07-02T04:03:06;662.00;;;626.60;;
29236;SDS011;16266;50.866;4.398;2023-07-02T04:05:32;636.85;;;604.20;;
29236;SDS011;16266;50.866;4.398;2023-07-02T04:07:58;645.00;;;612.03;;
29236;SDS011;16266;50.866;4.398;2023-07-02T04:10:24;667.53;;;633.05;;
29236;SDS011;16266;50.866;4.398;2023-07-02T04:12:50;582.35;;;553.38;;
29236;SDS011;16266;50.866;4.398;2023-07-02T04:15:15;559.65;;;532.28;;
29236;SDS011;16266;50.866;4.398;2023-07-02T04:17:41;528.78;;;503.60;;
29236;SDS011;16266;50.866;4.398;2023-07-02T04:20:07;483.63;;;460.85;;
29236;SDS011;16266;50.866;4.398;2023-07-02T04:22:33;520.33;;;495.45;;
29236;SDS011;16266;50.866;4.398;2023-07-02T04:24:59;556.97;;;529.92;;
29236;SDS011;16266;50.866;4.398;2023-07-02T04:27:24;529.63;;;504.02;;
29236;SDS011;16266;50.866;4.398;2023-07-02T04:29:50;507.77;;;483.85;;
29236;SDS011;16266;50.866;4.398;2023-07-02T04:32:15;517.88;;;493.23;;
29236;SDS011;16266;50.866;4.398;2023-07-02T04:34:41;527.47;;;501.90;;
29236;SDS011;16266;50.866;4.398;2023-07-02T04:37:08;522.70;;;497.52;;
29236;SDS011;16266;50.866;4.398;2023-07-02T04:39:34;562.90;;;534.83;;
29236;SDS011;16266;50.866;4.398;2023-07-02T04:42:00;568.00;;;539.88;;
29236;SDS011;16266;50.866;4.398;2023-07-02T04:44:26;664.15;;;627.35;;
29236;SDS011;16266;50.866;4.398;2023-07-02T04:47:01;724.55;;;678.63;;
29236;SDS011;16266;50.866;4.398;2023-07-02T04:49:27;730.92;;;681.20;;
29236;SDS011;16266;50.866;4.398;2023-07-02T04:51:53;596.85;;;559.50;;
29236;SDS011;16266;50.866;4.398;2023-07-02T04:54:19;466.75;;;440.20;;
29236;SDS011;16266;50.866;4.398;2023-07-02T04:56:46;428.42;;;406.33;;
29236;SDS011;16266;50.866;4.398;2023-07-02T04:59:13;431.60;;;409.70;;
29236;SDS011;16266;50.866;4.398;2023-07-02T05:01:39;452.85;;;430.65;;
29236;SDS011;16266;50.866;4.398;2023-07-02T05:04:05;460.52;;;437.55;;
29236;SDS011;16266;50.866;4.398;2023-07-02T05:06:31;470.45;;;446.30;;
29236;SDS011;16266;50.866;4.398;2023-07-02T05:08:57;490.75;;;464.17;;
29236;SDS011;16266;50.866;4.398;2023-07-02T05:11:22;503.88;;;478.40;;
29236;SDS011;16266;50.866;4.398;2023-07-02T05:13:48;545.55;;;518.30;;
29236;SDS011;16266;50.866;4.398;2023-07-02T05:16:13;654.55;;;618.55;;
29236;SDS011;16266;50.866;4.398;2023-07-02T05:18:40;755.95;;;708.90;;
29236;SDS011;16266;50.866;4.398;2023-07-02T05:21:06;784.38;;;734.05;;
29236;SDS011;16266;50.866;4.398;2023-07-02T05:23:31;761.25;;;713.13;;
29236;SDS011;16266;50.866;4.398;2023-07-02T05:25:57;774.50;;;725.67;;
29236;SDS011;16266;50.866;4.398;2023-07-02T05:28:23;793.88;;;743.13;;
29236;SDS011;16266;50.866;4.398;2023-07-02T05:30:49;760.90;;;713.85;;
29236;SDS011;16266;50.866;4.398;2023-07-02T05:33:15;762.03;;;713.60;;
29236;SDS011;16266;50.866;4.398;2023-07-02T05:35:41;693.95;;;653.78;;
29236;SDS011;16266;50.866;4.398;2023-07-02T05:38:06;654.88;;;619.40;;
29236;SDS011;16266;50.866;4.398;2023-07-02T05:40:32;493.15;;;469.15;;
29236;SDS011;16266;50.866;4.398;2023-07-02T05:42:58;553.15;;;525.28;;
29236;SDS011;16266;50.866;4.398;2023-07-02T05:45:23;634.75;;;599.55;;
29236;SDS011;16266;50.866;4.398;2023-07-02T05:47:49;713.65;;;670.95;;
29236;SDS011;16266;50.866;4.398;2023-07-02T05:50:15;675.53;;;636.40;;
29236;SDS011;16266;50.866;4.398;2023-07-02T05:52:41;670.42;;;632.10;;
29236;SDS011;16266;50.866;4.398;2023-07-02T05:55:09;629.38;;;593.55;;
29236;SDS011;16266;50.866;4.398;2023-07-02T05:57:36;624.58;;;587.58;;
29236;SDS011;16266;50.866;4.398;2023-07-02T06:00:04;600.03;;;566.05;;
29236;SDS011;16266;50.866;4.398;2023-07-02T06:02:30;527.67;;;501.92;;
29236;SDS011;16266;50.866;4.398;2023-07-02T06:04:56;297.10;;;284.20;;
29236;SDS011;16266;50.866;4.398;2023-07-02T06:07:23;364.38;;;348.45;;
29236;SDS011;16266;50.866;4.398;2023-07-02T06:09:49;401.35;;;383.83;;
29236;SDS011;16266;50.866;4.398;2023-07-02T06:12:15;365.42;;;349.85;;
29236;SDS011;16266;50.866;4.398;2023-07-02T06:14:41;386.15;;;368.92;;
29236;SDS011;16266;50.866;4.398;2023-07-02T06:17:07;333.88;;;319.00;;
29236;SDS011;16266;50.866;4.398;2023-07-02T06:19:33;138.50;;;131.82;;
29236;SDS011;16266;50.866;4.398;2023-07-02T06:21:59;438.42;;;417.75;;
29236;SDS011;16266;50.866;4.398;2023-07-02T06:24:25;243.73;;;233.43;;
29236;SDS011;16266;50.866;4.398;2023-07-02T06:26:50;236.95;;;227.13;;
29236;SDS011;16266;50.866;4.398;2023-07-02T06:29:16;209.73;;;201.13;;
29236;SDS011;16266;50.866;4.398;2023-07-02T06:31:42;156.77;;;149.18;;
29236;SDS011;16266;50.866;4.398;2023-07-02T06:34:07;147.10;;;141.30;;
29236;SDS011;16266;50.866;4.398;2023-07-02T06:36:34;131.45;;;125.55;;
29236;SDS011;16266;50.866;4.398;2023-07-02T06:38:59;230.85;;;221.23;;
29236;SDS011;16266;50.866;4.398;2023-07-02T06:41:25;430.88;;;412.00;;
29236;SDS011;16266;50.866;4.398;2023-07-02T06:43:51;402.25;;;384.45;;
29236;SDS011;16266;50.866;4.398;2023-07-02T06:46:16;408.38;;;389.92;;
29236;SDS011;16266;50.866;4.398;2023-07-02T06:48:42;289.58;;;277.65;;
29236;SDS011;16266;50.866;4.398;2023-07-02T06:51:08;502.50;;;478.63;;
29236;SDS011;16266;50.866;4.398;2023-07-02T06:53:34;175.10;;;167.43;;
29236;SDS011;16266;50.866;4.398;2023-07-02T06:56:02;148.98;;;142.95;;
29236;SDS011;16266;50.866;4.398;2023-07-02T06:58:27;70.07;;;67.35;;
29236;SDS011;16266;50.866;4.398;2023-07-02T07:00:53;132.60;;;127.13;;
29236;SDS011;16266;50.866;4.398;2023-07-02T07:03:18;143.73;;;137.45;;
29236;SDS011;16266;50.866;4.398;2023-07-02T07:05:44;54.15;;;51.88;;
29236;SDS011;16266;50.866;4.398;2023-07-02T07:08:10;68.35;;;65.38;;
29236;SDS011;16266;50.866;4.398;2023-07-02T07:10:35;34.33;;;32.72;;
29236;SDS011;16266;50.866;4.398;2023-07-02T07:13:01;74.03;;;71.05;;
29236;SDS011;16266;50.866;4.398;2023-07-02T07:15:29;56.55;;;54.47;;
29236;SDS011;16266;50.866;4.398;2023-07-02T07:17:58;55.70;;;53.20;;
29236;SDS011;16266;50.866;4.398;2023-07-02T07:20:23;48.60;;;46.40;;
29236;SDS011;16266;50.866;4.398;2023-07-02T07:22:49;54.30;;;52.22;;
29236;SDS011;16266;50.866;4.398;2023-07-02T07:25:15;42.92;;;41.30;;
29236;SDS011;16266;50.866;4.398;2023-07-02T07:27:40;46.38;;;44.47;;
29236;SDS011;16266;50.866;4.398;2023-07-02T07:30:06;41.17;;;39.55;;
29236;SDS011;16266;50.866;4.398;2023-07-02T07:32:32;44.25;;;42.35;;
29236;SDS011;16266;50.866;4.398;2023-07-02T07:34:58;49.70;;;47.72;;
29236;SDS011;16266;50.866;4.398;2023-07-02T07:37:24;39.50;;;37.88;;
29236;SDS011;16266;50.866;4.398;2023-07-02T07:39:52;43.33;;;41.40;;
29236;SDS011;16266;50.866;4.398;2023-07-02T07:42:18;38.30;;;36.92;;
29236;SDS011;16266;50.866;4.398;2023-07-02T07:44:47;39.72;;;38.25;;
29236;SDS011;16266;50.866;4.398;2023-07-02T07:47:12;37.72;;;36.35;;
29236;SDS011;16266;50.866;4.398;2023-07-02T07:49:38;36.33;;;34.72;;
29236;SDS011;16266;50.866;4.398;2023-07-02T07:52:04;39.22;;;37.63;;
29236;SDS011;16266;50.866;4.398;2023-07-02T07:54:32;38.90;;;37.50;;
29236;SDS011;16266;50.866;4.398;2023-07-02T07:56:59;49.13;;;47.10;;
29236;SDS011;16266;50.866;4.398;2023-07-02T07:59:25;50.45;;;48.40;;
29236;SDS011;16266;50.866;4.398;2023-07-02T08:01:51;42.35;;;40.70;;
29236;SDS011;16266;50.866;4.398;2023-07-02T08:04:16;61.63;;;59.13;;
29236;SDS011;16266;50.866;4.398;2023-07-02T08:06:42;48.30;;;46.20;;
29236;SDS011;16266;50.866;4.398;2023-07-02T08:09:07;35.85;;;34.22;;
29236;SDS011;16266;50.866;4.398;2023-07-02T08:11:34;38.03;;;36.58;;
29236;SDS011;16266;50.866;4.398;2023-07-02T08:14:00;54.58;;;52.47;;
29236;SDS011;16266;50.866;4.398;2023-07-02T08:16:25;81.53;;;78.40;;
29236;SDS011;16266;50.866;4.398;2023-07-02T08:18:51;76.65;;;73.55;;
29236;SDS011;16266;50.866;4.398;2023-07-02T08:21:16;56.90;;;54.70;;
29236;SDS011;16266;50.866;4.398;2023-07-02T08:23:42;50.10;;;48.15;;
29236;SDS011;16266;50.866;4.398;2023-07-02T08:26:12;46.03;;;44.20;;
29236;SDS011;16266;50.866;4.398;2023-07-02T08:28:39;49.25;;;47.13;;
29236;SDS011;16266;50.866;4.398;2023-07-02T08:31:04;38.92;;;37.17;;
29236;SDS011;16266;50.866;4.398;2023-07-02T08:33:30;39.05;;;37.40;;
29236;SDS011;16266;50.866;4.398;2023-07-02T08:35:56;37.72;;;35.97;;
29236;SDS011;16266;50.866;4.398;2023-07-02T08:38:22;29.95;;;28.80;;
29236;SDS011;16266;50.866;4.398;2023-07-02T08:40:51;27.27;;;26.13;;
29236;SDS011;16266;50.866;4.398;2023-07-02T08:43:17;30.60;;;29.33;;
29236;SDS011;16266;50.866;4.398;2023-07-02T08:45:43;26.13;;;24.85;;
29236;SDS011;16266;50.866;4.398;2023-07-02T08:48:09;28.20;;;27.10;;
29236;SDS011;16266;50.866;4.398;2023-07-02T08:50:36;36.15;;;32.97;;
29236;SDS011;16266;50.866;4.398;2023-07-02T08:53:02;34.97;;;33.38;;
29236;SDS011;16266;50.866;4.398;2023-07-02T08:55:27;32.83;;;30.80;;
29236;SDS011;16266;50.866;4.398;2023-07-02T08:57:55;29.98;;;28.42;;
29236;SDS011;16266;50.866;4.398;2023-07-02T09:00:25;76.55;;;73.18;;
29236;SDS011;16266;50.866;4.398;2023-07-02T09:02:51;147.48;;;141.13;;
29236;SDS011;16266;50.866;4.398;2023-07-02T09:05:17;146.98;;;141.25;;
29236;SDS011;16266;50.866;4.398;2023-07-02T09:07:43;136.98;;;131.50;;
29236;SDS011;16266;50.866;4.398;2023-07-02T09:10:10;130.40;;;124.88;;
29236;SDS011;16266;50.866;4.398;2023-07-02T09:12:36;129.30;;;123.40;;
29236;SDS011;16266;50.866;4.398;2023-07-02T09:15:04;37.33;;;35.72;;
29236;SDS011;16266;50.866;4.398;2023-07-02T09:17:32;57.50;;;55.25;;
29236;SDS011;16266;50.866;4.398;2023-07-02T09:20:00;43.90;;;41.97;;
29236;SDS011;16266;50.866;4.398;2023-07-02T09:22:27;43.25;;;41.38;;
29236;SDS011;16266;50.866;4.398;2023-07-02T09:24:57;42.30;;;39.92;;
29236;SDS011;16266;50.866;4.398;2023-07-02T09:27:36;31.92;;;30.42;;
29236;SDS011;16266;50.866;4.398;2023-07-02T09:30:10;38.22;;;36.47;;
29236;SDS011;16266;50.866;4.398;2023-07-02T09:32:40;58.92;;;56.25;;
29236;SDS011;16266;50.866;4.398;2023-07-02T09:35:10;58.58;;;55.53;;
29236;SDS011;16266;50.866;4.398;2023-07-02T09:37:36;65.90;;;63.30;;
29236;SDS011;16266;50.866;4.398;2023-07-02T09:40:03;106.18;;;102.00;;
29236;SDS011;16266;50.866;4.398;2023-07-02T09:42:33;126.65;;;121.15;;
29236;SDS011;16266;50.866;4.398;2023-07-02T09:45:00;112.78;;;108.28;;
29236;SDS011;16266;50.866;4.398;2023-07-02T09:47:27;93.53;;;89.85;;
29236;SDS011;16266;50.866;4.398;2023-07-02T09:50:03;53.80;;;51.58;;
29236;SDS011;16266;50.866;4.398;2023-07-02T09:52:30;124.18;;;119.32;;
29236;SDS011;16266;50.866;4.398;2023-07-02T09:54:58;100.78;;;96.20;;
29236;SDS011;16266;50.866;4.398;2023-07-02T09:57:24;66.32;;;63.75;;
29236;SDS011;16266;50.866;4.398;2023-07-02T09:59:50;35.40;;;34.05;;
29236;SDS011;16266;50.866;4.398;2023-07-02T10:02:16;71.28;;;68.47;;
29236;SDS011;16266;50.866;4.398;2023-07-02T10:04:46;34.05;;;32.05;;
29236;SDS011;16266;50.866;4.398;2023-07-02T10:09:39;50.30;;;48.38;;
29236;SDS011;16266;50.866;4.398;2023-07-02T10:12:20;99.03;;;95.25;;
29236;SDS011;16266;50.866;4.398;2023-07-02T10:14:48;46.38;;;44.63;;
29236;SDS011;16266;50.866;4.398;2023-07-02T10:17:24;33.22;;;31.80;;
29236;SDS011;16266;50.866;4.398;2023-07-02T10:19:58;23.58;;;22.17;;
29236;SDS011;16266;50.866;4.398;2023-07-02T10:22:25;22.00;;;20.92;;
29236;SDS011;16266;50.866;4.398;2023-07-02T10:24:55;20.02;;;19.15;;
29236;SDS011;16266;50.866;4.398;2023-07-02T10:27:33;24.58;;;23.48;;
29236;SDS011;16266;50.866;4.398;2023-07-02T10:30:04;23.88;;;22.98;;
29236;SDS011;16266;50.866;4.398;2023-07-02T10:32:30;19.15;;;18.35;;
29236;SDS011;16266;50.866;4.398;2023-07-02T10:34:58;18.58;;;17.77;;
29236;SDS011;16266;50.866;4.398;2023-07-02T10:37:25;27.10;;;25.92;;
29236;SDS011;16266;50.866;4.398;2023-07-02T10:39:50;35.00;;;33.58;;
29236;SDS011;16266;50.866;4.398;2023-07-02T10:42:17;31.08;;;29.30;;
29236;SDS011;16266;50.866;4.398;2023-07-02T10:44:52;30.73;;;29.38;;
29236;SDS011;16266;50.866;4.398;2023-07-02T10:47:18;34.78;;;33.40;;
29236;SDS011;16266;50.866;4.398;2023-07-02T10:49:44;32.55;;;31.27;;
29236;SDS011;16266;50.866;4.398;2023-07-02T10:52:10;29.00;;;27.90;;
29236;SDS011;16266;50.866;4.398;2023-07-02T10:54:43;24.55;;;23.65;;
29236;SDS011;16266;50.866;4.398;2023-07-02T10:57:10;30.33;;;29.13;;
29236;SDS011;16266;50.866;4.398;2023-07-02T10:59:38;22.10;;;21.13;;
29236;SDS011;16266;50.866;4.398;2023-07-02T11:02:04;22.02;;;21.17;;
29236;SDS011;16266;50.866;4.398;2023-07-02T11:04:31;30.40;;;28.45;;
29236;SDS011;16266;50.866;4.398;2023-07-02T11:06:59;25.35;;;24.42;;
29236;SDS011;16266;50.866;4.398;2023-07-02T11:09:25;23.73;;;22.73;;
29236;SDS011;16266;50.866;4.398;2023-07-02T11:11:55;28.15;;;26.98;;
29236;SDS011;16266;50.866;4.398;2023-07-02T11:14:35;26.02;;;25.02;;
29236;SDS011;16266;50.866;4.398;2023-07-02T11:17:05;25.67;;;24.60;;
29236;SDS011;16266;50.866;4.398;2023-07-02T11:19:35;21.65;;;20.67;;
29236;SDS011;16266;50.866;4.398;2023-07-02T11:24:34;21.88;;;20.88;;
29236;SDS011;16266;50.866;4.398;2023-07-02T11:27:04;35.90;;;34.47;;
29236;SDS011;16266;50.866;4.398;2023-07-02T11:29:31;37.97;;;36.43;;
29236;SDS011;16266;50.866;4.398;2023-07-02T11:32:10;33.85;;;31.65;;
29236;SDS011;16266;50.866;4.398;2023-07-02T11:34:39;24.73;;;23.52;;
29236;SDS011;16266;50.866;4.398;2023-07-02T11:37:05;21.05;;;20.15;;
29236;SDS011;16266;50.866;4.398;2023-07-02T11:39:31;31.80;;;30.58;;
29236;SDS011;16266;50.866;4.398;2023-07-02T11:41:57;30.42;;;29.02;;
29236;SDS011;16266;50.866;4.398;2023-07-02T11:44:23;26.67;;;25.25;;
29236;SDS011;16266;50.866;4.398;2023-07-02T11:46:49;24.48;;;23.52;;
29236;SDS011;16266;50.866;4.398;2023-07-02T11:49:15;27.23;;;25.80;;
29236;SDS011;16266;50.866;4.398;2023-07-02T11:51:41;27.52;;;25.90;;
29236;SDS011;16266;50.866;4.398;2023-07-02T11:54:13;22.17;;;21.17;;
29236;SDS011;16266;50.866;4.398;2023-07-02T11:56:39;18.73;;;17.58;;
29236;SDS011;16266;50.866;4.398;2023-07-02T11:59:07;18.48;;;17.58;;
29236;SDS011;16266;50.866;4.398;2023-07-02T12:01:33;21.85;;;20.45;;
29236;SDS011;16266;50.866;4.398;2023-07-02T12:03:59;19.50;;;18.70;;
29236;SDS011;16266;50.866;4.398;2023-07-02T12:06:25;21.33;;;20.35;;
29236;SDS011;16266;50.866;4.398;2023-07-02T12:08:50;26.63;;;25.17;;
29236;SDS011;16266;50.866;4.398;2023-07-02T12:11:16;29.42;;;28.13;;
29236;SDS011;16266;50.866;4.398;2023-07-02T12:13:42;26.70;;;25.52;;
29236;SDS011;16266;50.866;4.398;2023-07-02T12:16:08;29.65;;;28.33;;
29236;SDS011;16266;50.866;4.398;2023-07-02T12:18:33;25.63;;;24.75;;
29236;SDS011;16266;50.866;4.398;2023-07-02T12:20:59;26.55;;;25.33;;
29236;SDS011;16266;50.866;4.398;2023-07-02T12:23:25;28.92;;;27.73;;
29236;SDS011;16266;50.866;4.398;2023-07-02T12:25:50;28.42;;;26.98;;
29236;SDS011;16266;50.866;4.398;2023-07-02T12:28:16;26.77;;;25.70;;
29236;SDS011;16266;50.866;4.398;2023-07-02T12:30:41;26.90;;;25.77;;
29236;SDS011;16266;50.866;4.398;2023-07-02T12:33:07;24.95;;;24.00;;
29236;SDS011;16266;50.866;4.398;2023-07-02T12:35:33;21.27;;;20.40;;
29236;SDS011;16266;50.866;4.398;2023-07-02T12:37:59;19.73;;;18.92;;
29236;SDS011;16266;50.866;4.398;2023-07-02T12:40:25;18.55;;;17.05;;
29236;SDS011;16266;50.866;4.398;2023-07-02T12:42:51;22.77;;;21.77;;
29236;SDS011;16266;50.866;4.398;2023-07-02T12:45:17;23.77;;;22.63;;
29236;SDS011;16266;50.866;4.398;2023-07-02T12:47:43;18.60;;;17.90;;
29236;SDS011;16266;50.866;4.398;2023-07-02T12:50:09;19.92;;;18.85;;
29236;SDS011;16266;50.866;4.398;2023-07-02T12:52:35;18.60;;;17.70;;
29236;SDS011;16266;50.866;4.398;2023-07-02T12:55:01;19.55;;;18.65;;
29236;SDS011;16266;50.866;4.398;2023-07-02T12:57:28;24.38;;;22.98;;
29236;SDS011;16266;50.866;4.398;2023-07-02T12:59:54;23.50;;;22.50;;
29236;SDS011;16266;50.866;4.398;2023-07-02T13:02:20;23.38;;;22.33;;
29236;SDS011;16266;50.866;4.398;2023-07-02T13:04:47;23.27;;;22.45;;
29236;SDS011;16266;50.866;4.398;2023-07-02T13:07:13;24.90;;;23.70;;
29236;SDS011;16266;50.866;4.398;2023-07-02T13:09:38;22.55;;;21.50;;
29236;SDS011;16266;50.866;4.398;2023-07-02T13:12:04;20.30;;;19.58;;
29236;SDS011;16266;50.866;4.398;2023-07-02T13:14:30;20.92;;;20.13;;
29236;SDS011;16266;50.866;4.398;2023-07-02T13:16:56;20.83;;;19.77;;
29236;SDS011;16266;50.866;4.398;2023-07-02T13:19:24;21.42;;;20.55;;
29236;SDS011;16266;50.866;4.398;2023-07-02T13:21:50;20.10;;;18.77;;
29236;SDS011;16266;50.866;4.398;2023-07-02T13:24:15;19.55;;;18.65;;
29236;SDS011;16266;50.866;4.398;2023-07-02T13:26:41;19.90;;;17.80;;
29236;SDS011;16266;50.866;4.398;2023-07-02T13:29:06;19.50;;;18.75;;
29236;SDS011;16266;50.866;4.398;2023-07-02T13:31:32;19.90;;;18.83;;
29236;SDS011;16266;50.866;4.398;2023-07-02T13:33:58;19.52;;;18.73;;
29236;SDS011;16266;50.866;4.398;2023-07-02T13:36:24;18.88;;;18.08;;
29236;SDS011;16266;50.866;4.398;2023-07-02T13:38:53;16.52;;;15.93;;
29236;SDS011;16266;50.866;4.398;2023-07-02T13:41:19;19.27;;;18.13;;
29236;SDS011;16266;50.866;4.398;2023-07-02T13:43:45;18.38;;;17.67;;
29236;SDS011;16266;50.866;4.398;2023-07-02T13:46:10;21.83;;;20.65;;
29236;SDS011;16266;50.866;4.398;2023-07-02T13:48:36;17.35;;;16.63;;
29236;SDS011;16266;50.866;4.398;2023-07-02T13:51:02;18.95;;;18.05;;
29236;SDS011;16266;50.866;4.398;2023-07-02T13:53:27;18.65;;;17.95;;
29236;SDS011;16266;50.866;4.398;2023-07-02T13:55:53;19.33;;;18.63;;
29236;SDS011;16266;50.866;4.398;2023-07-02T13:58:19;23.42;;;22.20;;
29236;SDS011;16266;50.866;4.398;2023-07-02T14:00:44;21.88;;;20.98;;
29236;SDS011;16266;50.866;4.398;2023-07-02T14:03:10;23.45;;;22.25;;
29236;SDS011;16266;50.866;4.398;2023-07-02T14:05:36;23.23;;;22.15;;
29236;SDS011;16266;50.866;4.398;2023-07-02T14:08:01;19.98;;;19.23;;
29236;SDS011;16266;50.866;4.398;2023-07-02T14:10:27;20.90;;;20.10;;
29236;SDS011;16266;50.866;4.398;2023-07-02T14:12:53;24.13;;;23.17;;
29236;SDS011;16266;50.866;4.398;2023-07-02T14:15:19;30.25;;;28.67;;